Time;durP1;ratioP1;P1;durP2;ratioP2;P2;SDS_P1;SDS_P2;PMS_P1;PMS_P2;Temp;Humidity;BMP_temperature;BMP_pressure;BME280_temperature;BME280_humidity;BME280_pressure;Samples;Min_cycle;Max_cycle;Signal;HPM_P1;HPM_P2
2024/03/20 00:01:09;;;;;;;14.47;9.07;;;;;;;4.29;100.00;101557.28;5059058;28;20228;-72
2024/03/20 00:03:36;;;;;;;15.17;10.03;;;;;;;4.28;100.00;101553.09;5061684;28;20565;-71
2024/03/20 00:06:03;;;;;;;14.90;9.10;;;;;;;4.27;100.00;101545.50;5045251;28;20222;-72
2024/03/20 00:08:30;;;;;;;15.97;10.07;;;;;;;4.28;100.00;101541.84;5063898;28;20560;-73
2024/03/20 00:10:56;;;;;;;17.20;10.23;;;;;;;4.27;100.00;101541.06;5056252;28;20619;-72
2024/03/20 00:13:23;;;;;;;15.70;9.57;;;;;;;4.27;100.00;101542.88;5061235;28;20195;-72
2024/03/20 00:15:49;;;;;;;14.13;9.10;;;;;;;4.25;100.00;101539.75;5063119;28;20230;-72
2024/03/20 00:18:16;;;;;;;16.27;9.77;;;;;;;4.25;100.00;101545.00;5046834;28;20210;-71
2024/03/20 00:20:43;;;;;;;15.97;9.20;;;;;;;4.23;100.00;101540.00;5061278;28;20267;-72
2024/03/20 00:23:10;;;;;;;21.30;10.30;;;;;;;4.23;100.00;101536.59;5060361;28;20187;-72
2024/03/20 00:25:36;;;;;;;16.43;9.83;;;;;;;4.21;100.00;101533.47;5064376;28;20589;-72
2024/03/20 00:28:03;;;;;;;16.50;9.63;;;;;;;4.19;100.00;101525.88;5063519;28;20231;-72
2024/03/20 00:30:29;;;;;;;15.57;9.53;;;;;;;4.17;100.00;101530.59;5040313;28;20712;-71
2024/03/20 00:32:55;;;;;;;14.43;9.43;;;;;;;4.15;100.00;101524.06;5064625;28;20209;-72
2024/03/20 00:35:22;;;;;;;16.50;10.07;;;;;;;4.13;100.00;101526.13;5062562;28;20240;-72
2024/03/20 00:37:49;;;;;;;18.37;9.30;;;;;;;4.10;100.00;101521.44;5059782;28;20510;-72
2024/03/20 00:40:16;;;;;;;15.30;9.43;;;;;;;4.07;100.00;101524.56;5060633;28;20199;-71
2024/03/20 00:42:42;;;;;;;15.13;9.77;;;;;;;4.03;100.00;101519.06;5058308;28;20281;-72
2024/03/20 00:45:09;;;;;;;18.30;10.37;;;;;;;4.00;100.00;101505.75;5059262;28;20302;-71
2024/03/20 00:47:36;;;;;;;18.80;10.27;;;;;;;3.97;100.00;101504.44;5058522;28;20198;-72
2024/03/20 00:50:02;;;;;;;15.57;9.53;;;;;;;3.95;100.00;101508.34;5059804;28;20194;-72
2024/03/20 00:52:28;;;;;;;17.50;10.43;;;;;;;3.91;100.00;101505.47;5050980;28;20207;-72
2024/03/20 00:54:56;;;;;;;17.33;9.97;;;;;;;3.91;100.00;101513.31;5062593;28;20210;-72
2024/03/20 00:57:24;;;;;;;15.80;9.73;;;;;;;3.88;100.00;101503.38;5059697;28;20191;-71
2024/03/20 00:59:51;;;;;;;17.67;9.83;;;;;;;3.87;100.00;101496.56;5059052;28;20218;-72
2024/03/20 01:02:17;;;;;;;16.90;9.27;;;;;;;3.87;100.00;101501.00;5065357;28;20200;-71
2024/03/20 01:04:44;;;;;;;16.77;9.50;;;;;;;3.85;100.00;101508.31;5059751;28;20217;-72
2024/03/20 01:07:10;;;;;;;16.37;9.63;;;;;;;3.83;100.00;101498.13;5058692;28;20229;-72
2024/03/20 01:09:37;;;;;;;16.67;10.70;;;;;;;3.83;100.00;101486.91;5057822;28;20214;-71
2024/03/20 01:12:05;;;;;;;16.47;10.27;;;;;;;3.81;100.00;101488.97;5062380;28;20867;-72
2024/03/20 01:14:32;;;;;;;18.40;10.53;;;;;;;3.81;100.00;101492.38;5061398;28;20203;-72
2024/03/20 01:16:59;;;;;;;17.67;10.13;;;;;;;3.79;100.00;101491.06;5064319;28;20225;-72
2024/03/20 01:19:26;;;;;;;17.03;10.27;;;;;;;3.79;100.00;101498.91;5058707;28;20199;-72
2024/03/20 01:21:52;;;;;;;15.23;10.40;;;;;;;3.78;100.00;101486.91;5063284;28;20625;-72
2024/03/20 01:24:19;;;;;;;16.87;11.00;;;;;;;3.77;100.00;101480.09;5045085;28;20210;-72
2024/03/20 01:26:45;;;;;;;18.10;10.57;;;;;;;3.76;100.00;101481.94;5059710;28;20231;-72
2024/03/20 01:29:13;;;;;;;20.67;11.13;;;;;;;3.75;100.00;101482.97;5062396;28;20187;-72
2024/03/20 01:31:39;;;;;;;20.77;12.00;;;;;;;3.76;100.00;101481.13;5063547;28;20207;-72
2024/03/20 01:34:06;;;;;;;17.70;11.03;;;;;;;3.74;100.00;101484.00;5063237;28;20195;-72
2024/03/20 01:36:33;;;;;;;16.57;10.03;;;;;;;3.73;100.00;101482.44;5060927;28;20631;-71
2024/03/20 01:39:02;;;;;;;15.87;10.03;;;;;;;3.74;100.00;101483.22;5062256;28;20956;-72
2024/03/20 01:41:28;;;;;;;18.90;11.43;;;;;;;3.73;100.00;101492.13;5060403;28;20248;-71
2024/03/20 01:43:55;;;;;;;20.27;11.63;;;;;;;3.72;100.00;101480.88;5053365;28;20207;-72
2024/03/20 01:46:32;;;;;;;19.53;11.47;;;;;;;3.71;100.00;101479.31;5066755;28;20623;-72
2024/03/20 01:49:00;;;;;;;21.33;11.77;;;;;;;3.71;100.00;101475.91;5064228;28;20640;-72
2024/03/20 01:51:28;;;;;;;17.83;10.50;;;;;;;3.68;100.00;101477.19;5063776;28;20850;-72
2024/03/20 01:53:56;;;;;;;18.90;11.10;;;;;;;3.69;100.00;101472.78;5064934;28;20282;-72
2024/03/20 01:56:22;;;;;;;16.70;10.10;;;;;;;3.66;100.00;101463.63;5062644;28;20218;-71
2024/03/20 01:58:49;;;;;;;17.20;9.93;;;;;;;3.64;100.00;101459.69;5063390;28;20211;-72
2024/03/20 02:01:15;;;;;;;16.57;10.27;;;;;;;3.61;100.00;101463.59;5065374;28;20210;-71
2024/03/20 02:03:43;;;;;;;17.40;10.10;;;;;;;3.59;100.00;101457.88;5064032;28;20202;-71
2024/03/20 02:06:20;;;;;;;16.90;10.50;;;;;;;3.59;100.00;101467.53;5064853;28;20225;-71
2024/03/20 02:08:47;;;;;;;16.67;10.83;;;;;;;3.56;100.00;101458.38;5066224;28;20198;-71
2024/03/20 02:11:13;;;;;;;16.60;9.97;;;;;;;3.54;100.00;101447.41;5070932;28;20210;-71
2024/03/20 02:13:44;;;;;;;18.60;10.57;;;;;;;3.52;100.00;101451.31;5063632;28;20549;-71
2024/03/20 02:16:10;;;;;;;19.50;10.90;;;;;;;3.50;100.00;101456.00;5066818;28;20218;-72
2024/03/20 02:18:37;;;;;;;17.90;10.00;;;;;;;3.47;100.00;101452.06;5067353;28;20642;-72
2024/03/20 02:21:06;;;;;;;17.20;10.57;;;;;;;3.45;100.00;101455.97;5067368;28;20218;-71
2024/03/20 02:23:32;;;;;;;16.40;9.73;;;;;;;3.43;100.00;101460.69;5062460;28;20205;-71
2024/03/20 02:25:59;;;;;;;17.40;10.80;;;;;;;3.40;100.00;101453.34;5065358;28;20222;-72
2024/03/20 02:28:25;;;;;;;17.43;10.77;;;;;;;3.35;100.00;101451.53;5062963;28;20197;-72
2024/03/20 02:30:51;;;;;;;22.73;10.40;;;;;;;3.32;100.00;101453.88;5063712;28;20200;-71
2024/03/20 02:33:18;;;;;;;18.07;10.77;;;;;;;3.26;100.00;101457.50;5065491;28;20207;-72
2024/03/20 02:35:44;;;;;;;19.00;11.90;;;;;;;3.20;100.00;101463.72;5064047;28;20246;-72
2024/03/20 02:38:12;;;;;;;19.70;11.00;;;;;;;3.13;100.00;101473.63;5065854;28;20656;-72
2024/03/20 02:40:38;;;;;;;19.63;10.77;;;;;;;3.07;100.00;101464.97;5065212;28;20280;-71
2024/03/20 02:43:05;;;;;;;18.00;11.03;;;;;;;2.99;100.00;101464.66;5059377;28;20201;-71
2024/03/20 02:45:31;;;;;;;19.63;11.07;;;;;;;2.93;100.00;101461.25;5047210;28;20223;-71
2024/03/20 02:47:57;;;;;;;20.93;12.07;;;;;;;2.86;100.00;101460.69;5067981;28;20226;-71
2024/03/20 02:50:24;;;;;;;19.13;10.80;;;;;;;2.79;100.00;101460.13;5063783;28;20212;-71
2024/03/20 02:52:50;;;;;;;21.83;11.33;;;;;;;2.71;100.00;101458.00;5065872;28;20223;-71
2024/03/20 02:55:18;;;;;;;17.20;9.93;;;;;;;2.64;100.00;101457.44;5068893;28;20214;-71
2024/03/20 02:57:44;;;;;;;17.87;10.67;;;;;;;2.55;100.00;101461.53;5067880;28;20211;-71
2024/03/20 03:00:12;;;;;;;19.53;11.03;;;;;;;2.46;100.00;101470.09;5064400;28;20217;-71
2024/03/20 03:02:38;;;;;;;20.63;11.43;;;;;;;2.38;100.00;101454.94;5060335;28;20222;-72
2024/03/20 03:05:05;;;;;;;20.37;11.60;;;;;;;2.31;100.00;101459.53;5071745;28;20397;-71
2024/03/20 03:07:32;;;;;;;21.87;11.73;;;;;;;2.26;100.00;101454.28;5063057;28;20202;-71
2024/03/20 03:09:58;;;;;;;19.30;12.10;;;;;;;2.20;100.00;101458.69;5060001;28;20282;-71
2024/03/20 03:12:26;;;;;;;26.60;13.90;;;;;;;2.15;100.00;101463.88;5065321;28;20199;-71
2024/03/20 03:14:52;;;;;;;24.53;12.77;;;;;;;2.10;100.00;101469.03;5063380;28;20201;-71
2024/03/20 03:17:19;;;;;;;21.03;12.60;;;;;;;2.06;100.00;101469.75;5061252;28;20199;-71
2024/03/20 03:19:45;;;;;;;24.23;12.77;;;;;;;2.01;100.00;101472.31;5069762;28;20229;-71
2024/03/20 03:22:11;;;;;;;24.43;12.83;;;;;;;1.97;100.00;101474.63;5063946;28;20201;-71
2024/03/20 03:24:38;;;;;;;22.17;12.20;;;;;;;1.91;100.00;101472.22;5064727;28;20203;-71
2024/03/20 03:27:04;;;;;;;21.93;12.03;;;;;;;1.85;100.00;101473.22;5068635;28;20222;-71
2024/03/20 03:29:32;;;;;;;25.70;13.57;;;;;;;1.79;100.00;101463.78;5064072;28;20596;-71
2024/03/20 03:31:58;;;;;;;22.10;12.80;;;;;;;1.75;100.00;101466.09;5064780;28;20662;-71
2024/03/20 03:34:25;;;;;;;20.37;11.87;;;;;;;1.70;100.00;101468.66;5060201;28;20202;-71
2024/03/20 03:36:51;;;;;;;24.80;12.60;;;;;;;1.64;100.00;101469.63;5058155;28;20214;-71
2024/03/20 03:39:18;;;;;;;26.67;12.50;;;;;;;1.62;100.00;101461.25;5067777;28;20226;-71
2024/03/20 03:41:44;;;;;;;19.47;12.03;;;;;;;1.58;100.00;101468.00;5064770;28;20206;-71
2024/03/20 03:44:10;;;;;;;22.53;11.70;;;;;;;1.52;100.00;101471.56;5067794;28;20281;-71
2024/03/20 03:46:38;;;;;;;20.83;11.57;;;;;;;1.47;100.00;101476.75;5067952;28;20215;-71
2024/03/20 03:49:04;;;;;;;21.47;12.43;;;;;;;1.43;100.00;101474.84;5050320;28;20223;-71
2024/03/20 03:51:31;;;;;;;24.40;11.80;;;;;;;1.39;100.00;101471.16;5066863;28;20190;-71
2024/03/20 03:53:58;;;;;;;25.50;13.60;;;;;;;1.33;100.00;101472.94;5061228;28;20195;-72
2024/03/20 03:56:25;;;;;;;21.00;11.57;;;;;;;1.24;100.00;101470.97;5062014;28;20218;-72
2024/03/20 03:58:51;;;;;;;28.57;14.20;;;;;;;1.21;100.00;101480.03;5064316;28;20287;-71
2024/03/20 04:01:17;;;;;;;23.97;12.90;;;;;;;1.18;100.00;101479.75;5069094;28;20390;-71
2024/03/20 04:03:45;;;;;;;21.80;12.23;;;;;;;1.13;100.00;101477.88;5064329;28;20210;-71
2024/03/20 04:06:11;;;;;;;24.10;13.33;;;;;;;1.09;100.00;101484.59;5062880;28;20585;-71
2024/03/20 04:08:38;;;;;;;23.80;13.30;;;;;;;1.05;100.00;101482.72;5040007;28;20697;-71
2024/03/20 04:11:05;;;;;;;25.40;12.83;;;;;;;1.00;100.00;101485.25;5043226;28;20268;-71
2024/03/20 04:13:32;;;;;;;24.07;13.20;;;;;;;0.97;100.00;101490.91;5060075;28;20207;-72
2024/03/20 04:15:59;;;;;;;20.77;11.70;;;;;;;0.94;100.00;101494.00;5059256;28;20222;-72
2024/03/20 04:18:25;;;;;;;20.90;11.47;;;;;;;0.88;100.00;101494.97;5062227;28;20266;-71
2024/03/20 04:20:53;;;;;;;23.90;12.33;;;;;;;0.84;100.00;101494.63;5058478;28;20226;-71
2024/03/20 04:23:19;;;;;;;21.80;12.23;;;;;;;0.80;100.00;101501.38;5067811;28;20203;-71
2024/03/20 04:25:45;;;;;;;24.90;13.83;;;;;;;0.74;100.00;101504.88;5057255;28;20227;-71
2024/03/20 04:28:12;;;;;;;22.23;12.63;;;;;;;0.69;100.00;101497.03;5067406;28;20207;-71
2024/03/20 04:30:38;;;;;;;26.10;13.57;;;;;;;0.65;100.00;101497.75;5064210;28;20198;-71
2024/03/20 04:33:06;;;;;;;26.47;14.93;;;;;;;0.63;100.00;101494.59;5055549;28;20195;-71
2024/03/20 04:35:33;;;;;;;26.63;12.47;;;;;;;0.59;100.00;101499.50;5067286;28;20224;-71
2024/03/20 04:38:00;;;;;;;24.57;13.63;;;;;;;0.55;100.00;101500.19;5071743;28;20189;-71
2024/03/20 04:40:28;;;;;;;28.90;13.63;;;;;;;0.49;100.00;101488.94;5069973;28;20205;-71
2024/03/20 04:42:54;;;;;;;24.73;14.10;;;;;;;0.45;100.00;101484.44;5058854;28;20207;-71
2024/03/20 04:45:20;;;;;;;42.00;20.43;;;;;;;0.44;100.00;101494.06;5068592;28;20226;-71
2024/03/20 04:47:47;;;;;;;35.37;17.33;;;;;;;0.44;100.00;101493.25;5064674;28;20203;-71
2024/03/20 04:50:13;;;;;;;29.37;16.10;;;;;;;0.42;100.00;101496.09;5067036;28;20198;-71
2024/03/20 04:52:40;;;;;;;30.57;15.63;;;;;;;0.40;100.00;101495.56;5052095;28;20213;-71
2024/03/20 04:55:08;;;;;;;27.53;15.03;;;;;;;0.39;100.00;101490.59;5057292;28;20202;-71
2024/03/20 04:57:37;;;;;;;30.73;16.90;;;;;;;0.38;100.00;101494.97;5042147;28;20186;-71
2024/03/20 05:00:11;;;;;;;26.47;15.77;;;;;;;0.37;100.00;101490.81;5069438;28;20655;-71
2024/03/20 05:02:37;;;;;;;27.27;14.53;;;;;;;0.35;100.00;101490.28;5049941;28;20251;-71
2024/03/20 05:05:04;;;;;;;31.20;15.40;;;;;;;0.33;100.00;101489.72;5066235;28;20190;-71
2024/03/20 05:07:30;;;;;;;31.87;16.20;;;;;;;0.32;100.00;101495.16;5062193;28;20550;-71
2024/03/20 05:09:56;;;;;;;28.10;14.83;;;;;;;0.32;100.00;101484.78;5064941;28;20672;-71
2024/03/20 05:12:23;;;;;;;27.03;14.80;;;;;;;0.31;100.00;101488.38;5042062;28;20203;-71
2024/03/20 05:14:50;;;;;;;29.40;15.90;;;;;;;0.31;100.00;101489.16;5061134;28;20281;-71
2024/03/20 05:17:16;;;;;;;34.13;18.13;;;;;;;0.31;100.00;101496.16;5069099;28;20198;-71
2024/03/20 05:19:42;;;;;;;29.57;16.63;;;;;;;0.30;100.00;101500.59;5073618;28;20668;-71
2024/03/20 05:22:09;;;;;;;30.80;17.33;;;;;;;0.29;100.00;101508.59;5062813;28;20262;-71
2024/03/20 05:24:35;;;;;;;30.27;16.30;;;;;;;0.27;100.00;101498.44;5073215;28;20206;-72
2024/03/20 05:27:01;;;;;;;27.73;16.30;;;;;;;0.29;100.00;101509.41;5047205;28;20225;-72
2024/03/20 05:29:28;;;;;;;29.50;15.53;;;;;;;0.32;100.00;101508.16;5073423;28;20209;-71
2024/03/20 05:31:54;;;;;;;26.77;15.70;;;;;;;0.32;100.00;101513.34;5046209;28;20281;-72
2024/03/20 05:34:20;;;;;;;25.87;14.07;;;;;;;0.34;100.00;101509.50;5073637;28;20281;-71
2024/03/20 05:36:46;;;;;;;31.60;15.63;;;;;;;0.37;100.00;101506.41;5084067;28;20223;-71
2024/03/20 05:39:11;;;;;;;33.10;16.97;;;;;;;0.40;100.00;101507.75;5066923;28;20214;-72
2024/03/20 05:41:38;;;;;;;29.30;16.80;;;;;;;0.41;100.00;101510.09;5054547;28;20211;-71
2024/03/20 05:44:05;;;;;;;26.60;15.73;;;;;;;0.45;100.00;101510.41;5072406;28;20199;-71
2024/03/20 05:46:33;;;;;;;27.67;15.33;;;;;;;0.48;100.00;101507.38;5065687;28;20733;-72
2024/03/20 05:48:59;;;;;;;32.20;16.83;;;;;;;0.50;100.00;101515.69;5060994;28;20187;-71
2024/03/20 05:51:26;;;;;;;28.00;14.80;;;;;;;0.54;100.00;101509.81;5054989;28;20198;-72
2024/03/20 05:53:51;;;;;;;28.63;15.23;;;;;;;0.56;100.00;101506.94;5068164;28;20269;-72
2024/03/20 05:56:18;;;;;;;28.73;14.83;;;;;;;0.60;100.00;101508.84;5064368;28;20323;-72
2024/03/20 05:58:43;;;;;;;26.77;15.00;;;;;;;0.62;100.00;101512.00;5064990;28;20745;-71
2024/03/20 06:01:10;;;;;;;24.40;14.17;;;;;;;0.66;100.00;101507.09;5068947;28;20221;-71
2024/03/20 06:03:38;;;;;;;25.50;14.53;;;;;;;0.72;100.00;101519.94;5072140;28;20437;-71
2024/03/20 06:06:03;;;;;;;30.43;14.70;;;;;;;0.76;100.00;101515.84;5061944;28;20218;-71
2024/03/20 06:08:30;;;;;;;23.13;13.53;;;;;;;0.80;100.00;101514.38;5047503;28;20195;-71
2024/03/20 06:10:58;;;;;;;25.50;14.23;;;;;;;0.87;100.00;101516.78;5067958;28;20586;-71
2024/03/20 06:13:25;;;;;;;26.33;14.63;;;;;;;0.91;100.00;101516.06;5070174;28;20252;-71
2024/03/20 06:15:50;;;;;;;24.77;14.07;;;;;;;0.97;100.00;101509.13;5066583;28;20218;-71
2024/03/20 06:18:16;;;;;;;27.97;15.53;;;;;;;1.04;100.00;101512.34;5067606;28;20199;-71
2024/03/20 06:20:45;;;;;;;31.77;15.23;;;;;;;1.09;100.00;101510.59;5062980;28;20270;-71
2024/03/20 06:23:11;;;;;;;32.97;16.00;;;;;;;1.16;100.00;101515.63;5060753;28;20274;-71
2024/03/20 06:25:37;;;;;;;32.83;15.17;;;;;;;1.21;100.00;101515.69;5066214;28;20233;-71
2024/03/20 06:28:03;;;;;;;36.40;16.33;;;;;;;1.28;100.00;101505.88;5068414;28;20203;-71
2024/03/20 06:30:29;;;;;;;39.93;16.33;;;;;;;1.36;100.00;101511.44;5064596;28;20187;-71
2024/03/20 06:32:55;;;;;;;34.77;16.90;;;;;;;1.45;100.00;101524.84;5066355;28;20642;-71
2024/03/20 06:35:21;;;;;;;40.07;16.17;;;;;;;1.53;100.00;101511.41;5067907;28;20233;-71
2024/03/20 06:37:49;;;;;;;28.73;16.00;;;;;;;1.62;100.00;101505.50;5063756;28;20207;-72
2024/03/20 06:40:15;;;;;;;32.50;16.20;;;;;;;1.73;100.00;101511.63;5057883;28;20217;-71
2024/03/20 06:42:41;;;;;;;25.90;15.03;;;;;;;1.83;100.00;101511.75;5066017;28;20199;-71
2024/03/20 06:45:09;;;;;;;29.57;15.57;;;;;;;1.94;100.00;101516.00;5066175;28;20233;-71
2024/03/20 06:47:35;;;;;;;27.97;15.33;;;;;;;2.03;100.00;101510.09;5068807;28;20206;-71
2024/03/20 06:50:02;;;;;;;32.83;16.10;;;;;;;2.13;100.00;101515.41;5064754;28;20194;-71
2024/03/20 06:52:34;;;;;;;26.80;15.37;;;;;;;2.23;100.00;101517.34;5060900;28;20630;-71
2024/03/20 06:55:01;;;;;;;26.97;14.77;;;;;;;2.33;100.00;101525.25;5065109;28;20823;-71
2024/03/20 06:57:27;;;;;;;26.03;14.50;;;;;;;2.43;100.00;101526.09;5063798;28;20226;-72
2024/03/20 06:59:52;;;;;;;29.80;14.80;;;;;;;2.52;100.00;101521.22;5061571;28;20213;-71
2024/03/20 07:02:21;;;;;;;24.10;13.87;;;;;;;2.60;100.00;101523.38;5068832;28;20207;-71
2024/03/20 07:04:46;;;;;;;27.00;14.40;;;;;;;2.70;100.00;101520.84;5061274;28;20596;-71
2024/03/20 07:07:13;;;;;;;24.27;13.83;;;;;;;2.81;100.00;101525.09;5067877;28;20311;-71
2024/03/20 07:09:39;;;;;;;31.53;14.70;;;;;;;2.91;100.00;101525.16;5045341;28;20297;-71
2024/03/20 07:12:07;;;;;;;26.43;14.40;;;;;;;3.02;100.00;101532.00;5064783;28;20205;-72
2024/03/20 07:14:34;;;;;;;24.97;13.30;;;;;;;3.15;100.00;101529.72;5065824;28;20205;-71
2024/03/20 07:17:00;;;;;;;24.40;13.73;;;;;;;3.29;100.00;101530.06;5065892;28;20835;-71
2024/03/20 07:19:26;;;;;;;23.20;13.00;;;;;;;3.41;100.00;101531.41;5059960;28;20253;-71
2024/03/20 07:21:53;;;;;;;22.00;12.60;;;;;;;3.55;100.00;101534.34;5066114;28;20701;-71
2024/03/20 07:24:18;;;;;;;23.17;13.13;;;;;;;3.66;100.00;101528.91;5055875;28;20218;-71
2024/03/20 07:26:47;;;;;;;18.80;12.03;;;;;;;3.80;100.00;101534.44;5063132;28;20590;-71
2024/03/20 07:29:13;;;;;;;24.13;12.53;;;;;;;3.93;100.00;101534.72;5059991;28;20663;-71
2024/03/20 07:31:40;;;;;;;24.77;13.50;;;;;;;4.07;100.00;101543.66;5062375;28;20601;-71
2024/03/20 07:34:06;;;;;;;23.03;12.90;;;;;;;4.22;100.00;101537.66;5060581;28;20285;-71
2024/03/20 07:36:33;;;;;;;24.03;13.20;;;;;;;4.38;100.00;101534.00;5065501;28;20215;-72
2024/03/20 07:39:00;;;;;;;27.77;12.97;;;;;;;4.52;100.00;101533.22;5059422;28;20194;-72
2024/03/20 07:41:27;;;;;;;20.27;11.27;;;;;;;4.67;100.00;101537.69;5062425;28;20214;-72
2024/03/20 07:43:52;;;;;;;19.60;12.50;;;;;;;4.83;100.00;101540.00;5063931;28;20209;-72
2024/03/20 07:46:20;;;;;;;21.60;11.60;;;;;;;4.98;100.00;101541.81;5063113;28;20279;-72
2024/03/20 07:48:45;;;;;;;20.50;11.67;;;;;;;5.15;100.00;101537.06;5058183;28;20196;-72
2024/03/20 07:51:12;;;;;;;17.67;10.87;;;;;;;5.32;100.00;101529.69;5061128;28;20209;-72
2024/03/20 07:53:37;;;;;;;16.93;10.90;;;;;;;5.48;100.00;101539.84;5059981;28;20684;-72
2024/03/20 07:56:05;;;;;;;17.70;10.70;;;;;;;5.67;100.00;101540.03;5044831;28;20313;-72
2024/03/20 07:58:30;;;;;;;16.50;10.27;;;;;;;5.88;100.00;101538.88;5059225;28;20194;-72
2024/03/20 08:00:58;;;;;;;17.47;10.17;;;;;;;6.07;100.00;101539.84;5058014;28;20739;-72
2024/03/20 08:03:24;;;;;;;16.10;10.57;;;;;;;6.27;100.00;101539.72;5056300;28;20203;-72
2024/03/20 08:05:51;;;;;;;16.87;9.90;;;;;;;6.45;100.00;101537.22;5061223;28;20229;-72
2024/03/20 08:08:17;;;;;;;17.00;10.23;;;;;;;6.66;100.00;101545.69;5059864;28;20209;-72
2024/03/20 08:10:43;;;;;;;16.93;10.47;;;;;;;6.82;100.00;101537.41;5058922;28;20665;-72
2024/03/20 08:13:10;;;;;;;16.13;10.07;;;;;;;7.03;100.00;101540.59;5061111;28;20202;-72
2024/03/20 08:15:39;;;;;;;15.30;10.20;;;;;;;7.21;100.00;101538.06;5060073;28;20239;-72
2024/03/20 08:18:05;;;;;;;20.87;10.63;;;;;;;7.38;100.00;101540.22;5059786;28;20298;-72
2024/03/20 08:20:34;;;;;;;17.70;10.43;;;;;;;7.54;100.00;101547.66;5059262;28;20200;-72
2024/03/20 08:23:00;;;;;;;16.47;10.60;;;;;;;7.67;100.00;101549.59;5058157;28;20342;-72
2024/03/20 08:25:26;;;;;;;16.70;9.27;;;;;;;7.80;100.00;101548.09;5054620;28;20241;-72
2024/03/20 08:27:52;;;;;;;14.40;9.57;;;;;;;7.92;100.00;101546.63;5058621;28;20208;-72
2024/03/20 08:30:18;;;;;;;16.00;10.03;;;;;;;8.04;100.00;101548.84;5061534;28;20197;-72
2024/03/20 08:32:44;;;;;;;16.07;9.87;;;;;;;8.11;100.00;101541.38;5058145;28;20309;-72
2024/03/20 08:35:12;;;;;;;15.00;9.53;;;;;;;8.23;100.00;101549.66;5061961;28;20321;-72
2024/03/20 08:37:39;;;;;;;15.83;10.27;;;;;;;8.33;100.00;101539.75;5057680;28;20572;-72
2024/03/20 08:40:09;;;;;;;15.80;10.20;;;;;;;8.44;100.00;101540.38;5058650;28;20198;-72
2024/03/20 08:42:34;;;;;;;18.27;10.80;;;;;;;8.54;100.00;101540.22;5061843;28;20211;-72
2024/03/20 08:45:02;;;;;;;18.60;10.60;;;;;;;8.63;100.00;101535.84;5058502;28;20207;-72
2024/03/20 08:47:28;;;;;;;14.07;9.43;;;;;;;8.71;100.00;101540.44;5058804;28;20206;-72
2024/03/20 08:49:54;;;;;;;14.90;10.43;;;;;;;8.80;100.00;101536.84;5058965;28;20752;-72
2024/03/20 08:52:21;;;;;;;16.17;10.37;;;;;;;8.88;100.00;101545.94;5059952;28;20208;-72
2024/03/20 08:54:49;;;;;;;19.67;10.63;;;;;;;8.96;100.00;101534.75;5060988;28;20203;-72
2024/03/20 08:57:15;;;;;;;16.37;10.63;;;;;;;9.04;100.00;101542.75;5064285;28;20238;-72
2024/03/20 08:59:42;;;;;;;14.30;9.50;;;;;;;9.12;100.00;101538.66;5064093;28;20748;-72
2024/03/20 09:02:08;;;;;;;15.40;10.60;;;;;;;9.23;100.00;101540.81;5064569;28;20214;-72
2024/03/20 09:04:35;;;;;;;16.80;10.27;;;;;;;9.31;100.00;101539.38;5063404;28;20187;-72
2024/03/20 09:07:00;;;;;;;19.17;10.67;;;;;;;9.39;100.00;101531.53;5061467;28;20230;-72
2024/03/20 09:09:28;;;;;;;16.50;10.40;;;;;;;9.50;99.65;101542.66;5062752;28;20672;-72
2024/03/20 09:11:55;;;;;;;15.60;9.90;;;;;;;9.60;100.00;101532.69;5058640;28;20230;-72
2024/03/20 09:14:21;;;;;;;15.00;10.00;;;;;;;9.72;100.00;101543.50;5063822;28;20214;-72
2024/03/20 09:16:49;;;;;;;15.90;10.03;;;;;;;9.83;100.00;101531.66;5057322;28;20216;-72
2024/03/20 09:19:16;;;;;;;17.77;10.70;;;;;;;9.95;100.00;101525.88;5059625;28;20206;-72
2024/03/20 09:21:43;;;;;;;13.40;9.30;;;;;;;10.07;91.75;101528.78;5060013;28;20224;-72
2024/03/20 09:24:14;;;;;;;19.83;10.40;;;;;;;10.17;88.45;101528.56;5061951;28;20196;-72
2024/03/20 09:26:39;;;;;;;16.53;10.10;;;;;;;10.28;100.00;101522.75;5058077;28;20232;-72
2024/03/20 09:29:07;;;;;;;14.13;9.60;;;;;;;10.39;95.30;101518.00;5039990;28;20189;-72
2024/03/20 09:31:33;;;;;;;21.00;10.97;;;;;;;10.50;100.00;101529.88;5062556;28;20255;-72
2024/03/20 09:33:59;;;;;;;16.17;9.73;;;;;;;10.60;89.78;101522.47;5063760;28;20208;-72
2024/03/20 09:36:25;;;;;;;19.30;10.53;;;;;;;10.69;98.45;101518.03;5059695;28;20228;-72
2024/03/20 09:38:52;;;;;;;16.13;9.83;;;;;;;10.76;86.73;101518.38;5063518;28;20235;-72
2024/03/20 09:41:21;;;;;;;16.97;10.13;;;;;;;10.84;81.40;101522.94;5057001;28;20229;-72
2024/03/20 09:43:47;;;;;;;14.80;9.90;;;;;;;10.92;78.38;101519.53;5061178;28;20683;-72
2024/03/20 09:46:19;;;;;;;15.77;10.07;;;;;;;11.01;85.08;101517.72;5064676;28;20229;-72
2024/03/20 09:48:46;;;;;;;12.90;9.07;;;;;;;11.11;74.12;101514.00;5063130;28;20212;-72
2024/03/20 09:51:11;;;;;;;19.53;10.47;;;;;;;11.20;77.63;101512.19;5061486;28;20218;-72
2024/03/20 09:53:38;;;;;;;17.00;10.50;;;;;;;11.32;79.38;101515.00;5064942;28;20665;-72
2024/03/20 09:56:09;;;;;;;14.27;9.27;;;;;;;11.43;86.96;101518.94;5064495;28;20222;-72
2024/03/20 09:58:37;;;;;;;16.87;9.73;;;;;;;11.53;73.41;101516.78;5064545;28;20720;-72
2024/03/20 10:01:07;;;;;;;14.23;9.10;;;;;;;11.63;78.46;101511.22;5061733;28;20210;-72
2024/03/20 10:03:35;;;;;;;16.83;9.53;;;;;;;11.75;71.57;101511.38;5044907;28;20209;-72
2024/03/20 10:06:01;;;;;;;13.23;8.07;;;;;;;11.89;82.45;101509.38;5060213;28;20709;-72
2024/03/20 10:08:28;;;;;;;13.87;8.87;;;;;;;12.06;67.02;101503.31;5058824;28;20196;-72
2024/03/20 10:10:54;;;;;;;13.43;8.90;;;;;;;12.21;57.82;101508.88;5061039;28;20207;-72
2024/03/20 10:13:21;;;;;;;13.17;7.20;;;;;;;12.32;59.65;101504.81;5060289;28;20198;-72
2024/03/20 10:15:47;;;;;;;15.27;7.13;;;;;;;12.44;71.86;101504.97;5062759;28;20219;-72
2024/03/20 10:18:15;;;;;;;10.07;7.20;;;;;;;12.57;72.47;101497.94;5059117;28;20256;-72
2024/03/20 10:20:42;;;;;;;12.73;7.97;;;;;;;12.69;72.24;101498.81;5060050;28;20199;-72
2024/03/20 10:23:14;;;;;;;11.53;7.50;;;;;;;12.82;68.73;101492.53;5062753;28;21014;-72
2024/03/20 10:25:39;;;;;;;11.60;7.40;;;;;;;12.93;61.90;101492.97;5042745;28;20230;-72
2024/03/20 10:28:13;;;;;;;16.10;7.87;;;;;;;13.05;81.87;101493.88;5063828;28;20194;-72
2024/03/20 10:30:40;;;;;;;12.80;6.67;;;;;;;13.16;68.92;101496.94;5062447;28;20401;-73
2024/03/20 10:33:07;;;;;;;12.30;7.53;;;;;;;13.27;59.60;101487.53;5059332;28;20277;-72
2024/03/20 10:35:36;;;;;;;14.20;7.17;;;;;;;13.37;68.99;101492.47;5065603;28;20214;-73
2024/03/20 10:38:04;;;;;;;10.97;6.97;;;;;;;13.48;63.56;101485.69;5056867;28;20289;-73
2024/03/20 10:40:33;;;;;;;10.00;7.17;;;;;;;13.59;65.37;101482.31;5057602;28;20208;-72
2024/03/20 10:43:00;;;;;;;11.03;6.80;;;;;;;13.72;62.11;101486.59;5053016;28;20764;-73
2024/03/20 10:45:26;;;;;;;12.13;7.30;;;;;;;13.86;65.37;101491.63;5057161;28;20226;-72
2024/03/20 10:47:54;;;;;;;12.23;7.17;;;;;;;13.99;69.24;101491.38;5060938;28;20511;-72
2024/03/20 10:50:20;;;;;;;10.60;7.03;;;;;;;14.07;58.60;101492.41;5057658;28;20205;-72
2024/03/20 10:52:49;;;;;;;13.77;8.57;;;;;;;14.15;62.13;101487.00;5057853;28;20749;-72
2024/03/20 10:55:17;;;;;;;10.40;6.90;;;;;;;14.21;57.25;101487.59;5058392;28;20245;-73
2024/03/20 10:57:47;;;;;;;10.50;6.90;;;;;;;14.29;57.78;101478.78;5057341;28;20294;-72
2024/03/20 11:00:16;;;;;;;10.80;7.07;;;;;;;14.36;60.04;101485.13;5061476;28;20203;-72
2024/03/20 11:02:44;;;;;;;11.03;6.37;;;;;;;14.42;76.21;101481.16;5057611;28;20280;-72
2024/03/20 11:05:38;;;;;;;9.63;6.33;;;;;;;14.47;63.91;101486.25;5042522;28;20283;-72
2024/03/20 11:08:07;;;;;;;9.23;6.60;;;;;;;14.55;57.79;101482.72;5058879;28;20214;-73
2024/03/20 11:10:34;;;;;;;9.63;6.17;;;;;;;14.63;54.19;101489.81;5057802;28;20286;-73